Data for 08/20/2007

Time Sea-Level Adjusted Pressure Absolute Pressure Temperature Relative Humidity Dew Point   
(mb) (inHg) (mb) (inHg) (C) (F) (%) (C) (F)
00:05 1014 29.94 843 24.89 17.5 63.4 32 0.7 33.3
00:10 1014 29.94 843 24.89 17.3 63.1 32 0.4 32.8
00:15 1014 29.94 843 24.89 17.1 62.7 33 0.6 33.2
00:20 1014 29.94 843 24.89 17.1 62.7 27 -2.2 28.1
00:25 1014 29.94 843 24.89 17.4 63.4 26 -2 28.5
00:30 1013 29.91 843 24.89 17.5 63.5 26 -2 28.3
00:35 1014 29.94 843 24.89 17.7 63.8 26 -1.9 28.6
00:40 1014 29.94 843 24.89 17.6 63.8 26 -1.8 28.8
00:45 1014 29.94 843 24.89 17.5 63.4 27 -1.6 29.2
00:50 1014 29.94 843 24.89 17.3 63.2 27 -1.7 29
00:55 1014 29.94 843 24.89 17.2 63 28 -1.3 29.6
01:00 1014 29.94 843 24.89 16.9 62.5 30 -0.8 30.5
01:05 1014 29.94 843 24.89 16.4 61.5 31 -0.9 30.5
01:10 1014 29.94 843 24.89 16.1 60.9 32 -0.7 30.8
01:15 1014 29.94 843 24.89 15.9 60.6 32 -0.8 30.6
01:20 1014 29.94 843 24.89 15.9 60.6 32 -0.7 30.7
01:25 1014 29.94 844 24.92 15.8 60.5 32 -0.6 30.9
01:30 1014 29.94 844 24.92 15.8 60.5 33 -0.4 31.2
01:35 1014 29.94 844 24.92 15.6 60 34 -0.3 31.5
01:40 1014 29.94 844 24.92 15.3 59.6 34 -0.4 31.3
01:45 1014 29.94 844 24.92 15.4 59.8 34 -0.5 31.2
01:50 1014 29.94 844 24.92 15.6 60 33 -0.4 31.4
01:55 1015 29.97 844 24.92 15.5 60 34 -0.1 31.8
02:00 1015 29.97 844 24.92 15.5 59.8 35 0.2 32.3
02:05 1015 29.97 845 24.95 15.2 59.3 43 2.9 37.2
02:10 1015 29.97 845 24.95 14.6 58.3 46 3.1 37.6
02:15 1016 30 845 24.95 14.1 57.4 48 3.5 38.3
02:20 1016 30 845 24.95 13.6 56.5 51 3.7 38.6
02:25 1016 30 845 24.95 13.4 56.2 51 3.5 38.3
02:30 1016 30 845 24.95 13.4 56.1 50 3.4 38.1
02:35 1016 30 845 24.95 13.2 55.8 51 3.4 38.1
02:40 1016 30 845 24.95 13.2 55.7 50 3.1 37.6
02:45 1016 30 845 24.95 13.1 55.5 50 3.1 37.5
02:50 1016 30 845 24.95 12.9 55.2 51 3.2 37.7
02:55 1016 30 845 24.95 12.7 54.9 53 3.4 38.1
03:00 1016 30 845 24.95 12.6 54.6 54 3.5 38.2
03:05 1016 30 845 24.95 12.4 54.4 54 3.5 38.4
03:10 1016 30 846 24.98 12.4 54.2 55 3.7 38.7
03:15 1016 30 846 24.98 12.2 53.9 56 3.7 38.6
03:20 1017 30.03 846 24.98 12.1 53.9 56 3.7 38.7
03:25 1017 30.03 846 24.98 12 53.5 57 3.7 38.7
03:30 1017 30.03 846 24.98 11.9 53.5 57 3.7 38.6
03:35 1017 30.03 846 24.98 11.8 53.3 57 3.7 38.7
03:40 1017 30.03 846 24.98 11.8 53.3 57 3.6 38.5
03:45 1017 30.03 846 24.98 11.8 53.2 56 3.4 38.1
03:50 1017 30.03 846 24.98 11.8 53.2 57 3.5 38.4
03:55 1017 30.03 846 24.98 11.7 53 57 3.5 38.3
04:00 1017 30.03 846 24.98 11.6 52.8 58 3.7 38.6
04:05 1017 30.03 846 24.98 11.4 52.5 58 3.6 38.4
04:10 1017 30.03 846 24.98 11.2 52.2 59 3.6 38.5
04:15 1017 30.03 847 25.01 11 51.8 60 3.6 38.5
04:20 1017 30.03 847 25.01 10.9 51.7 59 3.4 38.1
04:25 1017 30.03 847 25.01 10.9 51.6 61 3.8 38.8
04:30 1017 30.03 847 25.01 10.7 51.3 62 3.7 38.6
04:35 1017 30.03 847 25.01 10.8 51.4 61 3.5 38.4
04:40 1017 30.03 847 25.01 10.9 51.7 58 3.1 37.6
04:45 1017 30.03 846 24.98 11.1 52 56 2.8 37.1
04:50 1017 30.03 846 24.98 11.2 52.2 55 2.5 36.5
04:55 1017 30.03 846 24.98 11.4 52.5 54 2.6 36.6
05:00 1017 30.03 846 24.98 11.4 52.5 54 2.4 36.4
05:05 1017 30.03 847 25.01 11 51.8 61 3.8 38.8
05:10 1017 30.03 847 25.01 9.9 49.9 62 2.9 37.3
05:15 1018 30.06 847 25.01 10.2 50.4 60 2.8 37
05:20 1018 30.06 847 25.01 10.6 51.1 57 2.5 36.4
05:25 1018 30.06 847 25.01 10.8 51.5 57 2.6 36.6
05:30 1018 30.06 847 25.01 10.8 51.5 59 3.1 37.6
05:35 1018 30.06 847 25.01 10.8 51.4 57 2.6 36.7
05:40 1018 30.06 847 25.01 10.4 50.7 62 3.5 38.4
05:45 1018 30.06 847 25.01 10 50 62 3.2 37.7
05:50 1018 30.06 847 25.01 9.9 49.7 62 3.1 37.5
05:55 1018 30.06 847 25.01 10 49.9 62 3 37.3
06:00 1018 30.06 847 25.01 10.2 50.3 62 3.3 37.9
06:05 1018 30.06 847 25.01 10 50.1 64 3.5 38.4
06:10 1018 30.06 847 25.01 9.6 49.2 63 3 37.4
06:15 1018 30.06 847 25.01 9.2 48.6 64 2.7 36.9
06:20 1018 30.06 847 25.01 9.2 48.6 65 3 37.4
06:25 1018 30.06 847 25.01 9 48.1 66 3.1 37.5
06:30 1018 30.06 848 25.04 8.6 47.5 68 3.1 37.5
06:35 1018 30.06 848 25.04 8.3 47 70 3.1 37.6
06:40 1018 30.06 848 25.04 8.4 47.1 67 2.7 36.8
06:45 1018 30.06 848 25.04 8.7 47.6 67 2.9 37.2
06:50 1018 30.06 848 25.04 8.9 47.9 67 3.1 37.7
06:55 1019 30.09 848 25.04 8.5 47.2 68 3 37.3
07:00 1019 30.09 848 25.04 8.3 46.9 69 2.9 37.3
07:05 1019 30.09 848 25.04 8.2 46.8 68 2.6 36.7
07:10 1019 30.09 848 25.04 8.3 46.9 67 2.5 36.6
07:15 1019 30.09 848 25.04 8.5 47.3 66 2.6 36.7
07:20 1019 30.09 848 25.04 8.9 47.9 66 2.8 37
07:25 1019 30.09 848 25.04 9.1 48.4 64 2.8 37
07:30 1019 30.09 848 25.04 9.4 49 62 2.5 36.5
07:35 1019 30.09 848 25.04 9.6 49.3 62 2.6 36.7
07:40 1019 30.09 848 25.04 10 50 62 3 37.4
07:45 1019 30.09 848 25.04 10.3 50.5 60 3 37.3
07:50 1019 30.09 848 25.04 10.5 50.9 61 3.3 38
07:55 1019 30.09 848 25.04 10.6 51 62 3.7 38.7
08:00 1019 30.09 848 25.04 10.4 50.6 65 4.1 39.4
08:05 1019 30.09 848 25.04 10.4 50.7 63 3.6 38.5
08:10 1019 30.09 848 25.04 10.6 51.2 62 3.6 38.5
08:15 1019 30.09 848 25.04 10.9 51.6 64 4.3 39.8
08:20 1019 30.09 848 25.04 10.9 51.7 64 4.4 39.9
08:25 1019 30.09 848 25.04 11 51.8 63 4.2 39.5
08:30 1019 30.09 848 25.04 11.1 52.1 59 3.5 38.3
08:35 1019 30.09 848 25.04 11.6 52.8 52 2.1 35.8
08:40 1019 30.09 848 25.04 12 53.5 50 2 35.6
08:45 1019 30.09 848 25.04 12.2 53.9 49 2 35.5
08:50 1019 30.09 848 25.04 12.4 54.4 48 1.8 35.3
08:55 1019 30.09 848 25.04 12.6 54.6 47 1.6 35
09:00 1019 30.09 848 25.04 12.7 54.9 48 1.9 35.5
09:05 1019 30.09 848 25.04 12.7 54.9 46 1.5 34.8
09:10 1019 30.09 848 25.04 12.9 55.3 46 1.6 34.9
09:15 1019 30.09 848 25.04 13.1 55.6 45 1.5 34.7
09:20 1019 30.09 848 25.04 13.5 56.3 44 1.6 34.9
09:25 1019 30.09 848 25.04 13.9 56.9 42 1.2 34.1
09:30 1019 30.09 848 25.04 14.4 58 41 1.6 34.9
09:35 1019 30.09 848 25.04 14.9 58.8 40 1.6 34.8
09:40 1019 30.09 848 25.04 15 59 41 1.8 35.3
09:45 1019 30.09 848 25.04 14.9 58.8 41 1.9 35.4
09:50 1019 30.09 848 25.04 14.9 58.8 42 2.1 35.7
09:55 1019 30.09 848 25.04 14.9 58.8 41 1.8 35.2
10:00 1019 30.09 848 25.04 14.7 58.5 42 2.1 35.9
10:05 1019 30.09 848 25.04 15 58.9 41 1.9 35.4
10:10 1019 30.09 848 25.04 15.7 60.3 39 1.9 35.5
10:15 1019 30.09 848 25.04 16 60.8 37 1.3 34.4
10:20 1019 30.09 848 25.04 15.6 60 39 1.9 35.5
10:25 1019 30.09 848 25.04 15.4 59.8 40 2.1 35.8
10:30 1019 30.09 848 25.04 15.1 59.2 39 1.4 34.6
10:35 1019 30.09 848 25.04 15.8 60.4 37 1.4 34.4
10:40 1019 30.09 848 25.04 15.5 59.9 39 1.8 35.3
10:45 1019 30.09 848 25.04 15.7 60.3 37 1.1 34
10:50 1019 30.09 848 25.04 16 60.8 36 1 33.8
10:55 1019 30.09 848 25.04 16.6 61.8 34 0.7 33.3
11:00 1019 30.09 848 25.04 15.9 60.5 39 1.9 35.4
11:05 1019 30.09 848 25.04 15.6 60 38 1.5 34.7
11:10 1019 30.09 848 25.04 16.1 60.9 36 1.1 34
11:15 1018 30.06 848 25.04 16.6 61.8 34 0.9 33.6
11:20 1018 30.06 848 25.04 17.2 62.9 34 1.3 34.3
11:25 1018 30.06 848 25.04 17.9 64.2 27 -1.3 29.7
11:30 1018 30.06 847 25.01 18.7 65.6 26 -1.3 29.7
11:35 1018 30.06 847 25.01 19.3 66.7 24 -1.6 29.1
11:40 1018 30.06 847 25.01 19.4 66.9 24 -1.5 29.3
11:45 1018 30.06 847 25.01 19 66.3 25 -1.1 30
11:50 1018 30.06 847 25.01 19.1 66.3 25 -1.1 30
11:55 1018 30.06 847 25.01 19.1 66.4 25 -1 30.3
12:00 1018 30.06 847 25.01 19.3 66.7 24 -1.6 29.1
12:05 1018 30.06 847 25.01 20 67.9 26 -0.2 31.6
12:10 1018 30.06 847 25.01 20.4 68.7 24 -0.9 30.4
12:15 1018 30.06 847 25.01 20.9 69.6 22 -1.6 29.1
12:20 1018 30.06 847 25.01 20.2 68.3 24 -0.9 30.4
12:25 1018 30.06 847 25.01 19.6 67.3 25 -0.7 30.8
12:30 1018 30.06 847 25.01 19.3 66.8 24 -1.4 29.4
12:35 1018 30.06 847 25.01 19.4 67 24 -1.4 29.5
12:40 1018 30.06 847 25.01 19.6 67.3 25 -0.8 30.5
12:45 1018 30.06 847 25.01 19.9 67.7 24 -1.1 30
12:50 1017 30.03 847 25.01 20.4 68.7 21 -2.3 27.9
12:55 1017 30.03 846 24.98 20.6 69.1 19 -3.7 25.4
13:00 1017 30.03 846 24.98 20.4 68.8 19 -3.8 25.2
13:05 1017 30.03 846 24.98 20.4 68.6 19 -3.6 25.6
13:10 1017 30.03 846 24.98 20.3 68.5 18 -4.4 24.1
13:15 1017 30.03 846 24.98 20.2 68.4 19 -4.1 24.7
13:20 1017 30.03 846 24.98 20.5 68.9 15 -6.6 20
13:25 1017 30.03 846 24.98 21.2 70.1 16 -5.3 22.4
13:30 1017 30.03 846 24.98 21.2 70.1 15 -6 21.2
13:35 1017 30.03 846 24.98 20.7 69.3 15 -6.3 20.6
13:40 1017 30.03 846 24.98 20.9 69.5 14 -7.2 19.1
13:45 1017 30.03 846 24.98 20.9 69.6 13 -8 17.6
13:50 1017 30.03 846 24.98 20.9 69.5 13 -8.2 17.2
13:55 1017 30.03 846 24.98 21.3 70.3 13 -7.9 17.8
14:00 1017 30.03 846 24.98 21.6 71 13 -7.6 18.4
14:05 1017 30.03 846 24.98 22.2 72 13 -7.3 18.9
14:10 1017 30.03 846 24.98 22.5 72.4 13 -6.7 20
14:15 1017 30.03 846 24.98 22.2 71.9 13 -7.5 18.4
14:20 1017 30.03 846 24.98 22.4 72.3 13 -7.7 18.2
14:25 1017 30.03 846 24.98 22.6 72.6 13 -6.9 19.6
14:30 1017 30.03 846 24.98 22 71.6 14 -6.5 20.2
14:35 1017 30.03 846 24.98 21.7 71 15 -6.3 20.6
14:40 1017 30.03 846 24.98 21.6 70.8 15 -5.8 21.6
14:45 1017 30.03 846 24.98 21.6 70.9 15 -5.8 21.6
14:50 1017 30.03 846 24.98 21 69.7 16 -5.8 21.6
14:55 1017 30.03 846 24.98 20.5 68.9 15 -6.8 19.7
15:00 1017 30.03 846 24.98 20.5 68.9 16 -6.2 20.9
15:05 1017 30.03 846 24.98 21 69.7 16 -6 21.3
15:10 1017 30.03 846 24.98 21.3 70.3 16 -5.8 21.6
15:15 1017 30.03 846 24.98 21.1 70 17 -4.5 24
15:20 1016 30 846 24.98 21 69.8 16 -5.7 21.7
15:25 1016 30 846 24.98 21 69.8 17 -4.9 23.2
15:30 1016 30 845 24.95 21 69.8 15 -6.3 20.7
15:35 1016 30 845 24.95 21.2 70.1 16 -5.7 21.8
15:40 1016 30 845 24.95 21.2 70.1 16 -5.3 22.4
15:45 1016 30 845 24.95 21.2 70.1 18 -3.7 25.3
15:50 1016 30 845 24.95 21.3 70.3 16 -5 22.9
15:55 1016 30 845 24.95 21.3 70.4 16 -5.6 21.9
16:00 1016 30 845 24.95 21.2 70.2 16 -5.1 22.9
16:05 1016 30 845 24.95 21.1 70 17 -4.7 23.6
16:10 1016 30 845 24.95 21.2 70.2 18 -4.2 24.5
16:15 1016 30 845 24.95 21.2 70.2 18 -3.7 25.4
16:20 1016 30 845 24.95 21.3 70.4 16 -5.5 22
16:25 1016 30 845 24.95 21.4 70.5 16 -5.2 22.6
16:30 1016 30 845 24.95 21.4 70.5 17 -4.6 23.7
16:35 1016 30 845 24.95 21.5 70.7 16 -5.4 22.3
16:40 1016 30 845 24.95 21.5 70.6 18 -4 24.8
16:45 1016 30 845 24.95 21.2 70.2 18 -3.9 24.9
16:50 1016 30 845 24.95 21.2 70.1 18 -3.9 25
16:55 1016 30 845 24.95 21.3 70.3 20 -2.5 27.5
17:00 1016 30 845 24.95 21.3 70.4 19 -3.3 26.1
17:05 1016 30 845 24.95 21.3 70.3 19 -3.3 26
17:10 1016 30 845 24.95 21.2 70.2 20 -2.7 27.2
17:15 1016 30 845 24.95 21.1 70 20 -2.3 27.8
17:20 1016 30 845 24.95 21 69.7 21 -2.3 27.8
17:25 1016 30 845 24.95 20.9 69.7 21 -2.2 28
17:30 1016 30 845 24.95 20.9 69.5 21 -2.1 28.2
17:35 1016 30 845 24.95 20.7 69.3 22 -1.9 28.6
17:40 1016 30 845 24.95 20.6 69.1 23 -1.3 29.7
17:45 1016 30 845 24.95 20.7 69.2 22 -1.4 29.6
17:50 1016 30 845 24.95 20.6 69.1 23 -1.1 30
17:55 1016 30 846 24.98 20.5 69 22 -1.9 28.6
18:00 1016 30 846 24.98 20.5 68.9 23 -1.2 29.8
18:05 1016 30 846 24.98 20.3 68.6 22 -2.2 28.1
18:10 1017 30.03 846 24.98 20.3 68.6 22 -2.1 28.1
18:15 1017 30.03 846 24.98 20.3 68.5 22 -2.1 28.3
18:20 1016 30 846 24.98 20.2 68.4 22 -2.2 28
18:25 1016 30 846 24.98 20.1 68.2 22 -2.3 27.8
18:30 1016 30 846 24.98 19.9 67.8 21 -2.6 27.3
18:35 1016 30 846 24.98 19.8 67.6 23 -2 28.5
18:40 1016 30 846 24.98 19.6 67.3 24 -1.6 29.1
18:45 1016 30 846 24.98 19.5 67.1 24 -1.3 29.6
18:50 1016 30 845 24.95 19.4 67 24 -1.4 29.5
18:55 1016 30 845 24.95 19.4 66.9 25 -1.1 30
19:00 1016 30 846 24.98 19.4 66.8 25 -0.9 30.4
19:05 1017 30.03 846 24.98 19.2 66.5 25 -1 30.2
19:10 1017 30.03 846 24.98 19 66.3 26 -0.7 30.8
19:15 1017 30.03 846 24.98 18.9 66 27 -0.3 31.5
19:20 1017 30.03 846 24.98 18.5 65.4 28 -0.1 31.8
19:25 1017 30.03 846 24.98 18.4 65.1 29 0.3 32.5
19:30 1017 30.03 847 25.01 18.2 64.8 30 0.4 32.7
19:35 1018 30.06 847 25.01 18 64.5 31 0.9 33.6
19:40 1018 30.06 847 25.01 17.8 64.1 32 0.9 33.5
19:45 1017 30.03 847 25.01 17.7 63.8 32 1.1 33.9
19:50 1017 30.03 846 24.98 17.5 63.4 33 1.1 34.1
19:55 1017 30.03 846 24.98 17.2 62.9 34 1.2 34.2
20:00 1017 30.03 846 24.98 17 62.6 35 1.3 34.4
20:05 1017 30.03 846 24.98 16.9 62.5 35 1.6 34.9
20:10 1017 30.03 846 24.98 16.8 62.2 37 2 35.6
20:15 1017 30.03 847 25.01 16.7 62.1 38 2.3 36.2
20:20 1018 30.06 847 25.01 16.7 62 40 3 37.4
20:25 1018 30.06 847 25.01 16.5 61.7 41 3.2 37.7
20:30 1018 30.06 847 25.01 16.3 61.4 41 3 37.4
20:35 1018 30.06 847 25.01 16.3 61.3 41 3.2 37.8
20:40 1018 30.06 847 25.01 16.2 61.2 45 4.3 39.8
20:45 1018 30.06 847 25.01 16.1 61 45 4.2 39.5
20:50 1018 30.06 847 25.01 15.7 60.2 49 5.2 41.3
20:55 1018 30.06 848 25.04 15 58.9 52 5.3 41.5
21:00 1018 30.06 848 25.04 14.8 58.7 49 4.4 39.9
21:05 1018 30.06 848 25.04 14.8 58.6 51 4.7 40.5
21:10 1018 30.06 848 25.04 14.7 58.5 53 5.2 41.4
21:15 1018 30.06 848 25.04 14.7 58.4 54 5.6 42.1
21:20 1018 30.06 848 25.04 14.5 58.1 55 5.6 42.2
21:25 1018 30.06 848 25.04 14 57.2 61 6.6 43.9
21:30 1018 30.06 847 25.01 13.7 56.7 63 6.9 44.5
21:35 1018 30.06 847 25.01 13.6 56.4 64 6.9 44.4
21:40 1018 30.06 847 25.01 13.1 55.6 71 8.1 46.5
21:45 1018 30.06 847 25.01 12.3 54.2 74 7.9 46.3
21:50 1018 30.06 847 25.01 12.2 53.9 75 7.9 46.3
21:55 1018 30.06 847 25.01 12.2 53.9 74 7.7 45.9
22:00 1018 30.06 847 25.01 12.2 54 76 8.1 46.5
22:05 1018 30.06 847 25.01 12.1 53.8 76 8.1 46.7
22:10 1018 30.06 847 25.01 12.1 53.7 76 8 46.4
22:15 1018 30.06 847 25.01 12 53.5 77 8.2 46.7
22:20 1018 30.06 847 25.01 11.8 53.3 78 8.1 46.6
22:25 1018 30.06 847 25.01 11.9 53.4 77 8.1 46.5
22:30 1018 30.06 847 25.01 12 53.6 77 8.1 46.6
22:35 1018 30.06 847 25.01 12 53.6 77 8.2 46.7
22:40 1018 30.06 847 25.01 12 53.6 77 8.1 46.5
22:45 1018 30.06 847 25.01 12.1 53.7 76 8 46.4
22:50 1018 30.06 847 25.01 12.1 53.8 76 7.9 46.3
22:55 1018 30.06 847 25.01 12.1 53.7 76 7.9 46.3
23:00 1018 30.06 847 25.01 12.2 53.9 75 8 46.3
23:05 1018 30.06 847 25.01 12.2 53.9 75 8 46.4
23:10 1018 30.06 847 25.01 12.3 54.1 74 7.8 46
23:15 1018 30.06 847 25.01 12.2 54 74 7.7 45.9
23:20 1018 30.06 847 25.01 12.3 54.1 75 8 46.4
23:25 1018 30.06 847 25.01 12.6 54.6 73 7.9 46.2
23:30 1018 30.06 847 25.01 13 55.3 71 7.8 46
23:35 1018 30.06 847 25.01 13.2 55.8 70 7.8 46.1
23:40 1018 30.06 847 25.01 13.3 56 71 8.1 46.7
23:45 1018 30.06 847 25.01 13.4 56.2 70 8.1 46.6
23:50 1018 30.06 847 25.01 13.5 56.2 72 8.5 47.3
23:55 1018 30.06 847 25.01 13.5 56.3 65 7 44.7
24:00 1018 30.06 847 25.01 13.7 56.6 64 6.9 44.5